sensor_id;sensor_type;location;lat;lon;timestamp;pressure;altitude;pressure_sealevel;temperature;humidity
35676;BME280;21790;42.668;23.298;2023-07-29T00:00:31;94559.09;;;26.02;37.52
35676;BME280;21790;42.668;23.298;2023-07-29T00:03:11;94560.81;;;26.05;37.51
35676;BME280;21790;42.668;23.298;2023-07-29T00:08:45;94561.19;;;26.02;37.93
35676;BME280;21790;42.668;23.298;2023-07-29T00:11:17;94561.38;;;25.96;37.97
35676;BME280;21790;42.668;23.298;2023-07-29T00:13:55;94567.22;;;25.98;38.06
35676;BME280;21790;42.668;23.298;2023-07-29T00:16:28;94562.13;;;26.04;37.92
35676;BME280;21790;42.668;23.298;2023-07-29T00:18:57;94554.59;;;25.99;38.21
35676;BME280;21790;42.668;23.298;2023-07-29T00:21:29;94562.88;;;25.97;37.79
35676;BME280;21790;42.668;23.298;2023-07-29T00:24:04;94556.28;;;26.10;37.50
35676;BME280;21790;42.668;23.298;2023-07-29T00:26:34;94559.13;;;25.95;37.81
35676;BME280;21790;42.668;23.298;2023-07-29T00:29:02;94555.72;;;25.81;38.12
35676;BME280;21790;42.668;23.298;2023-07-29T00:31:28;94549.28;;;25.80;38.17
35676;BME280;21790;42.668;23.298;2023-07-29T00:34:03;94547.03;;;25.79;38.22
35676;BME280;21790;42.668;23.298;2023-07-29T00:36:38;94550.25;;;25.83;37.81
35676;BME280;21790;42.668;23.298;2023-07-29T00:39:05;94553.84;;;25.91;37.47
35676;BME280;21790;42.668;23.298;2023-07-29T00:41:38;94558.72;;;25.75;37.81
35676;BME280;21790;42.668;23.298;2023-07-29T00:44:14;94547.03;;;25.79;37.85
35676;BME280;21790;42.668;23.298;2023-07-29T00:46:42;94555.34;;;25.62;38.12
35676;BME280;21790;42.668;23.298;2023-07-29T00:49:20;94549.66;;;25.92;37.46
35676;BME280;21790;42.668;23.298;2023-07-29T00:51:50;94546.28;;;25.63;38.15
35676;BME280;21790;42.668;23.298;2023-07-29T00:54:23;94546.28;;;25.63;38.09
35676;BME280;21790;42.668;23.298;2023-07-29T00:56:53;94555.34;;;25.62;38.26
35676;BME280;21790;42.668;23.298;2023-07-29T00:59:19;94545.13;;;25.59;38.08
35676;BME280;21790;42.668;23.298;2023-07-29T01:01:46;94544.78;;;25.62;37.96
35676;BME280;21790;42.668;23.298;2023-07-29T01:04:21;94542.47;;;25.46;38.64
35676;BME280;21790;42.668;23.298;2023-07-29T01:16:42;94543.22;;;25.54;38.82
35676;BME280;21790;42.668;23.298;2023-07-29T01:29:05;94545.09;;;25.36;39.19
35676;BME280;21790;42.668;23.298;2023-07-29T01:31:43;94545.84;;;25.36;39.13
35676;BME280;21790;42.668;23.298;2023-07-29T01:37:25;94540.56;;;25.25;39.06
35676;BME280;21790;42.668;23.298;2023-07-29T01:40:02;94548.69;;;25.44;38.18
35676;BME280;21790;42.668;23.298;2023-07-29T01:42:59;94534.50;;;25.21;39.41
35676;BME280;21790;42.668;23.298;2023-07-29T01:45:37;94543.72;;;25.14;39.26
35676;BME280;21790;42.668;23.298;2023-07-29T01:48:20;94541.84;;;25.17;39.19
35676;BME280;21790;42.668;23.298;2023-07-29T01:50:55;94540.13;;;25.06;39.63
35676;BME280;21790;42.668;23.298;2023-07-29T01:53:36;94541.84;;;25.17;39.65
35676;BME280;21790;42.668;23.298;2023-07-29T01:56:06;94538.75;;;24.99;39.67
35676;BME280;21790;42.668;23.298;2023-07-29T02:02:14;94544.59;;;24.94;40.03
35676;BME280;21790;42.668;23.298;2023-07-29T02:04:50;94537.03;;;24.89;40.06
35676;BME280;21790;42.668;23.298;2023-07-29T02:07:35;94549.13;;;24.97;40.05
35676;BME280;21790;42.668;23.298;2023-07-29T02:10:24;94542.69;;;24.89;39.95
35676;BME280;21790;42.668;23.298;2023-07-29T02:13:24;94545.16;;;24.92;40.08
35676;BME280;21790;42.668;23.298;2023-07-29T02:15:55;94550.44;;;24.96;40.13
35676;BME280;21790;42.668;23.298;2023-07-29T02:18:51;94549.31;;;24.99;39.94
35676;BME280;21790;42.668;23.298;2023-07-29T02:21:25;94554.19;;;24.91;40.10
35676;BME280;21790;42.668;23.298;2023-07-29T02:23:52;94551.28;;;24.76;40.03
35676;BME280;21790;42.668;23.298;2023-07-29T02:29:44;94556.56;;;24.79;40.34
35676;BME280;21790;42.668;23.298;2023-07-29T02:35:20;94558.47;;;24.84;39.70
35676;BME280;21790;42.668;23.298;2023-07-29T02:38:01;94553.59;;;24.85;39.90
35676;BME280;21790;42.668;23.298;2023-07-29T02:40:33;94543.75;;;24.71;40.27
35676;BME280;21790;42.668;23.298;2023-07-29T02:43:03;94533.91;;;24.64;40.43
35676;BME280;21790;42.668;23.298;2023-07-29T02:45:38;94539.56;;;24.64;40.27
35676;BME280;21790;42.668;23.298;2023-07-29T02:48:04;94550.44;;;24.52;40.43
35676;BME280;21790;42.668;23.298;2023-07-29T02:50:43;94551.56;;;24.57;40.42
35676;BME280;21790;42.668;23.298;2023-07-29T02:53:19;94553.13;;;24.66;40.38
35676;BME280;21790;42.668;23.298;2023-07-29T02:56:15;94556.69;;;24.66;40.42
35676;BME280;21790;42.668;23.298;2023-07-29T02:58:52;94554.25;;;24.63;40.57
35676;BME280;21790;42.668;23.298;2023-07-29T03:01:42;94554.00;;;24.53;40.83
35676;BME280;21790;42.668;23.298;2023-07-29T03:07:26;94567.81;;;24.64;40.54
35676;BME280;21790;42.668;23.298;2023-07-29T03:10:16;94561.50;;;24.50;40.79
35676;BME280;21790;42.668;23.298;2023-07-29T03:16:21;94568.09;;;24.45;41.11
35676;BME280;21790;42.668;23.298;2023-07-29T03:18:48;94568.09;;;24.45;41.27
35676;BME280;21790;42.668;23.298;2023-07-29T03:21:28;94569.53;;;24.39;41.34
35676;BME280;21790;42.668;23.298;2023-07-29T03:23:55;94564.78;;;24.26;41.76
35676;BME280;21790;42.668;23.298;2023-07-29T03:26:50;94564.78;;;24.26;41.54
35676;BME280;21790;42.668;23.298;2023-07-29T03:29:29;94568.06;;;24.38;41.43
35676;BME280;21790;42.668;23.298;2023-07-29T03:32:18;94574.84;;;24.42;41.26
35676;BME280;21790;42.668;23.298;2023-07-29T03:34:49;94575.34;;;24.33;41.19
35676;BME280;21790;42.668;23.298;2023-07-29T03:37:15;94572.81;;;24.50;40.96
35676;BME280;21790;42.668;23.298;2023-07-29T03:39:45;94572.22;;;24.44;41.12
35676;BME280;21790;42.668;23.298;2023-07-29T03:42:33;94569.22;;;24.50;40.96
35676;BME280;21790;42.668;23.298;2023-07-29T03:45:14;94562.81;;;24.49;41.01
35676;BME280;21790;42.668;23.298;2023-07-29T03:47:45;94576.56;;;24.45;40.90
35676;BME280;21790;42.668;23.298;2023-07-29T03:50:21;94579.28;;;24.58;41.09
35676;BME280;21790;42.668;23.298;2023-07-29T03:52:52;94575.25;;;24.46;41.16
35676;BME280;21790;42.668;23.298;2023-07-29T03:55:29;94568.31;;;24.55;40.41
35676;BME280;21790;42.668;23.298;2023-07-29T03:57:57;94564.00;;;24.54;40.73
35676;BME280;21790;42.668;23.298;2023-07-29T04:00:25;94569.97;;;24.43;41.04
35676;BME280;21790;42.668;23.298;2023-07-29T04:02:51;94568.00;;;24.30;41.26
35676;BME280;21790;42.668;23.298;2023-07-29T04:05:26;94570.72;;;24.43;41.08
35676;BME280;21790;42.668;23.298;2023-07-29T04:07:56;94574.03;;;24.63;40.87
35676;BME280;21790;42.668;23.298;2023-07-29T04:10:25;94585.91;;;24.69;40.71
35676;BME280;21790;42.668;23.298;2023-07-29T04:13:03;94586.75;;;24.84;40.47
35676;BME280;21790;42.668;23.298;2023-07-29T04:20:22;94577.84;;;25.09;39.56
35676;BME280;21790;42.668;23.298;2023-07-29T04:23:01;94579.00;;;25.28;39.03
35676;BME280;21790;42.668;23.298;2023-07-29T04:25:37;94583.19;;;25.42;39.03
35676;BME280;21790;42.668;23.298;2023-07-29T04:31:20;94581.50;;;25.55;38.85
35676;BME280;21790;42.668;23.298;2023-07-29T04:33:56;94585.53;;;25.67;38.64
35676;BME280;21790;42.668;23.298;2023-07-29T04:36:22;94583.09;;;25.78;38.42
35676;BME280;21790;42.668;23.298;2023-07-29T04:42:25;94597.25;;;26.24;37.71
35676;BME280;21790;42.668;23.298;2023-07-29T04:44:58;94599.50;;;26.41;37.30
35676;BME280;21790;42.668;23.298;2023-07-29T04:47:23;94587.03;;;26.44;37.48
35676;BME280;21790;42.668;23.298;2023-07-29T04:50:11;94585.66;;;26.67;37.15
35676;BME280;21790;42.668;23.298;2023-07-29T04:52:47;94593.38;;;26.75;36.55
35676;BME280;21790;42.668;23.298;2023-07-29T04:55:15;94590.69;;;26.84;36.42
35676;BME280;21790;42.668;23.298;2023-07-29T04:57:56;94596.53;;;27.01;36.18
35676;BME280;21790;42.668;23.298;2023-07-29T05:03:51;94595.94;;;27.11;35.51
35676;BME280;21790;42.668;23.298;2023-07-29T05:14:59;94613.53;;;27.49;34.64
35676;BME280;21790;42.668;23.298;2023-07-29T05:17:45;94618.00;;;27.67;34.25
35676;BME280;21790;42.668;23.298;2023-07-29T05:20:40;94615.34;;;27.69;34.10
35676;BME280;21790;42.668;23.298;2023-07-29T05:23:05;94616.13;;;27.62;34.31
35676;BME280;21790;42.668;23.298;2023-07-29T05:25:36;94605.66;;;27.72;34.77
35676;BME280;21790;42.668;23.298;2023-07-29T05:28:14;94613.25;;;27.95;34.47
35676;BME280;21790;42.668;23.298;2023-07-29T05:30:56;94612.47;;;28.02;34.10
35676;BME280;21790;42.668;23.298;2023-07-29T05:33:22;94609.81;;;28.04;34.14
35676;BME280;21790;42.668;23.298;2023-07-29T05:35:50;94615.53;;;28.21;33.75
35676;BME280;21790;42.668;23.298;2023-07-29T05:38:24;94616.81;;;28.27;33.85
35676;BME280;21790;42.668;23.298;2023-07-29T05:40:57;94619.28;;;28.31;33.82
35676;BME280;21790;42.668;23.298;2023-07-29T05:43:38;94618.53;;;28.48;33.63
35676;BME280;21790;42.668;23.298;2023-07-29T05:46:28;94622.63;;;28.54;33.86
35676;BME280;21790;42.668;23.298;2023-07-29T05:48:55;94626.44;;;28.32;33.64
35676;BME280;21790;42.668;23.298;2023-07-29T05:51:25;94624.00;;;28.28;33.87
35676;BME280;21790;42.668;23.298;2023-07-29T05:54:05;94622.44;;;28.35;33.85
35676;BME280;21790;42.668;23.298;2023-07-29T05:56:31;94614.44;;;28.41;33.85
35676;BME280;21790;42.668;23.298;2023-07-29T05:59:01;94619.28;;;28.48;33.70
35676;BME280;21790;42.668;23.298;2023-07-29T06:01:35;94616.38;;;28.56;32.99
35676;BME280;21790;42.668;23.298;2023-07-29T06:04:01;94623.84;;;28.68;32.88
35676;BME280;21790;42.668;23.298;2023-07-29T06:06:46;94627.44;;;28.69;32.57
35676;BME280;21790;42.668;23.298;2023-07-29T06:09:14;94622.94;;;28.83;32.65
35676;BME280;21790;42.668;23.298;2023-07-29T06:11:59;94625.22;;;29.02;32.56
35676;BME280;21790;42.668;23.298;2023-07-29T06:17:43;94619.25;;;29.42;32.15
35676;BME280;21790;42.668;23.298;2023-07-29T06:20:19;94617.06;;;29.50;32.01
35676;BME280;21790;42.668;23.298;2023-07-29T06:22:50;94608.88;;;29.37;31.65
35676;BME280;21790;42.668;23.298;2023-07-29T06:25:18;94604.59;;;29.45;31.90
35676;BME280;21790;42.668;23.298;2023-07-29T06:28:02;94609.09;;;29.48;31.98
35676;BME280;21790;42.668;23.298;2023-07-29T06:30:32;94601.38;;;29.59;31.79
35676;BME280;21790;42.668;23.298;2023-07-29T06:33:08;94588.47;;;29.58;31.64
35676;BME280;21790;42.668;23.298;2023-07-29T06:35:46;94601.69;;;29.63;31.45
35676;BME280;21790;42.668;23.298;2023-07-29T06:38:19;94598.53;;;29.59;31.28
35676;BME280;21790;42.668;23.298;2023-07-29T06:41:16;94600.56;;;29.75;31.51
35676;BME280;21790;42.668;23.298;2023-07-29T06:43:44;94599.44;;;29.88;31.64
35676;BME280;21790;42.668;23.298;2023-07-29T06:46:14;94586.59;;;29.97;31.23
35676;BME280;21790;42.668;23.298;2023-07-29T06:48:41;94594.72;;;30.00;31.21
35676;BME280;21790;42.668;23.298;2023-07-29T06:51:14;94587.38;;;30.07;31.46
35676;BME280;21790;42.668;23.298;2023-07-29T06:53:42;94590.91;;;30.24;31.00
35676;BME280;21790;42.668;23.298;2023-07-29T06:56:20;94594.66;;;30.27;30.66
35676;BME280;21790;42.668;23.298;2023-07-29T06:58:53;94592.16;;;30.41;30.60
35676;BME280;21790;42.668;23.298;2023-07-29T07:01:31;94592.44;;;30.45;30.91
35676;BME280;21790;42.668;23.298;2023-07-29T07:04:05;94598.38;;;30.66;31.08
35676;BME280;21790;42.668;23.298;2023-07-29T07:10:11;94598.69;;;30.80;30.70
35676;BME280;21790;42.668;23.298;2023-07-29T07:12:37;94600.03;;;30.88;31.14
35676;BME280;21790;42.668;23.298;2023-07-29T07:15:15;94593.34;;;31.03;30.50
35676;BME280;21790;42.668;23.298;2023-07-29T07:18:08;94595.75;;;31.06;30.13
35676;BME280;21790;42.668;23.298;2023-07-29T07:20:40;94596.78;;;31.21;29.88
35676;BME280;21790;42.668;23.298;2023-07-29T07:23:19;94596.59;;;30.99;29.94
35676;BME280;21790;42.668;23.298;2023-07-29T07:25:55;94595.44;;;31.12;30.69
35676;BME280;21790;42.668;23.298;2023-07-29T07:28:20;94584.44;;;31.28;30.53
35676;BME280;21790;42.668;23.298;2023-07-29T07:30:53;94592.25;;;31.46;29.71
35676;BME280;21790;42.668;23.298;2023-07-29T07:34:00;94589.06;;;31.71;29.80
35676;BME280;21790;42.668;23.298;2023-07-29T07:39:34;94570.78;;;31.95;28.93
35676;BME280;21790;42.668;23.298;2023-07-29T07:45:09;94581.41;;;32.14;29.14
35676;BME280;21790;42.668;23.298;2023-07-29T07:47:44;94570.75;;;32.05;29.07
35676;BME280;21790;42.668;23.298;2023-07-29T07:50:19;94582.44;;;32.19;28.45
35676;BME280;21790;42.668;23.298;2023-07-29T07:53:14;94585.13;;;32.26;27.79
35676;BME280;21790;42.668;23.298;2023-07-29T07:55:48;94588.91;;;32.19;28.40
35676;BME280;21790;42.668;23.298;2023-07-29T07:58:29;94583.75;;;32.27;28.75
35676;BME280;21790;42.668;23.298;2023-07-29T08:01:06;94579.25;;;32.24;28.35
35676;BME280;21790;42.668;23.298;2023-07-29T08:03:35;94589.97;;;32.24;28.70
35676;BME280;21790;42.668;23.298;2023-07-29T08:06:09;94586.78;;;32.29;28.40
35676;BME280;21790;42.668;23.298;2023-07-29T08:08:54;94582.00;;;32.22;28.13
35676;BME280;21790;42.668;23.298;2023-07-29T08:11:35;94571.00;;;32.19;28.67
35676;BME280;21790;42.668;23.298;2023-07-29T08:14:19;94584.56;;;32.09;27.95
35676;BME280;21790;42.668;23.298;2023-07-29T08:16:54;94573.75;;;32.07;28.84
35676;BME280;21790;42.668;23.298;2023-07-29T08:19:31;94581.50;;;32.26;28.09
35676;BME280;21790;42.668;23.298;2023-07-29T08:22:14;94586.47;;;32.56;29.26
35676;BME280;21790;42.668;23.298;2023-07-29T08:25:17;94586.00;;;32.60;28.62
35676;BME280;21790;42.668;23.298;2023-07-29T08:27:55;94583.78;;;32.79;27.83
35676;BME280;21790;42.668;23.298;2023-07-29T08:30:35;94582.34;;;32.69;27.84
35676;BME280;21790;42.668;23.298;2023-07-29T08:33:10;94580.09;;;32.89;27.51
35676;BME280;21790;42.668;23.298;2023-07-29T08:35:35;94585.69;;;32.87;27.81
35676;BME280;21790;42.668;23.298;2023-07-29T08:38:37;94587.31;;;33.11;27.32
35676;BME280;21790;42.668;23.298;2023-07-29T08:41:26;94576.47;;;33.09;26.66
35676;BME280;21790;42.668;23.298;2023-07-29T08:46:50;94572.66;;;33.16;27.02
35676;BME280;21790;42.668;23.298;2023-07-29T08:49:30;94569.03;;;33.37;26.13
35676;BME280;21790;42.668;23.298;2023-07-29T08:52:02;94559.13;;;33.29;26.01
35676;BME280;21790;42.668;23.298;2023-07-29T08:54:35;94568.66;;;33.43;26.76
35676;BME280;21790;42.668;23.298;2023-07-29T08:57:13;94556.09;;;33.48;25.50
35676;BME280;21790;42.668;23.298;2023-07-29T08:59:56;94560.13;;;33.54;25.42
35676;BME280;21790;42.668;23.298;2023-07-29T09:02:24;94558.09;;;33.57;25.24
35676;BME280;21790;42.668;23.298;2023-07-29T09:04:59;94572.75;;;33.73;24.20
35676;BME280;21790;42.668;23.298;2023-07-29T09:07:32;94548.03;;;33.68;24.64
35676;BME280;21790;42.668;23.298;2023-07-29T09:10:21;94557.94;;;33.76;24.47
35676;BME280;21790;42.668;23.298;2023-07-29T09:12:52;94557.59;;;33.82;24.44
35676;BME280;21790;42.668;23.298;2023-07-29T09:15:36;94552.84;;;33.98;24.31
35676;BME280;21790;42.668;23.298;2023-07-29T09:18:17;94540.88;;;33.90;24.38
35676;BME280;21790;42.668;23.298;2023-07-29T09:21:06;94541.75;;;33.81;23.86
35676;BME280;21790;42.668;23.298;2023-07-29T09:26:55;94540.25;;;33.80;24.02
35676;BME280;21790;42.668;23.298;2023-07-29T09:29:35;94533.28;;;33.50;24.07
35676;BME280;21790;42.668;23.298;2023-07-29T09:32:22;94530.22;;;33.57;23.56
35676;BME280;21790;42.668;23.298;2023-07-29T09:34:52;94528.16;;;33.70;24.47
35676;BME280;21790;42.668;23.298;2023-07-29T09:40:48;94529.16;;;33.97;23.19
35676;BME280;21790;42.668;23.298;2023-07-29T09:43:18;94523.91;;;33.94;23.56
35676;BME280;21790;42.668;23.298;2023-07-29T09:46:03;94519.44;;;34.02;23.27
35676;BME280;21790;42.668;23.298;2023-07-29T09:48:55;94515.69;;;34.12;23.62
35676;BME280;21790;42.668;23.298;2023-07-29T09:51:30;94509.22;;;34.11;23.26
35676;BME280;21790;42.668;23.298;2023-07-29T09:54:03;94521.06;;;34.17;23.50
35676;BME280;21790;42.668;23.298;2023-07-29T09:56:39;94507.72;;;34.10;22.66
35676;BME280;21790;42.668;23.298;2023-07-29T09:59:05;94502.34;;;34.04;23.11
35676;BME280;21790;42.668;23.298;2023-07-29T10:01:31;94507.84;;;34.00;22.98
35676;BME280;21790;42.668;23.298;2023-07-29T10:04:02;94515.97;;;34.04;22.88
35676;BME280;21790;42.668;23.298;2023-07-29T10:06:36;94511.09;;;33.95;23.67
35676;BME280;21790;42.668;23.298;2023-07-29T10:09:14;94504.97;;;34.12;23.56
35676;BME280;21790;42.668;23.298;2023-07-29T10:12:02;94500.63;;;34.23;23.58
35676;BME280;21790;42.668;23.298;2023-07-29T10:14:37;94499.88;;;34.34;23.19
35676;BME280;21790;42.668;23.298;2023-07-29T10:17:11;94507.09;;;34.47;22.95
35676;BME280;21790;42.668;23.298;2023-07-29T10:19:40;94495.63;;;34.47;22.50
35676;BME280;21790;42.668;23.298;2023-07-29T10:22:28;94499.97;;;34.48;22.10
35676;BME280;21790;42.668;23.298;2023-07-29T10:25:03;94488.53;;;34.36;21.98
35676;BME280;21790;42.668;23.298;2023-07-29T10:27:49;94482.84;;;34.61;22.54
35676;BME280;21790;42.668;23.298;2023-07-29T10:30:24;94477.63;;;34.58;21.73
35676;BME280;21790;42.668;23.298;2023-07-29T10:33:02;94470.75;;;34.63;21.65
35676;BME280;21790;42.668;23.298;2023-07-29T10:35:29;94476.59;;;34.65;21.97
35676;BME280;21790;42.668;23.298;2023-07-29T10:38:00;94468.84;;;34.79;21.80
35676;BME280;21790;42.668;23.298;2023-07-29T10:47:28;94469.25;;;34.99;21.36
35676;BME280;21790;42.668;23.298;2023-07-29T10:49:58;94438.25;;;34.83;20.96
35676;BME280;21790;42.668;23.298;2023-07-29T10:52:48;94452.38;;;35.05;21.24
35676;BME280;21790;42.668;23.298;2023-07-29T10:55:33;94449.72;;;35.09;21.49
35676;BME280;21790;42.668;23.298;2023-07-29T10:58:22;94452.59;;;35.09;21.51
35676;BME280;21790;42.668;23.298;2023-07-29T11:00:50;94448.31;;;34.96;20.83
35676;BME280;21790;42.668;23.298;2023-07-29T11:03:16;94447.66;;;34.72;21.02
35676;BME280;21790;42.668;23.298;2023-07-29T11:05:48;94438.63;;;34.78;20.84
35676;BME280;21790;42.668;23.298;2023-07-29T11:08:36;94442.34;;;34.80;20.67
35676;BME280;21790;42.668;23.298;2023-07-29T11:11:14;94431.91;;;34.73;20.26
35676;BME280;21790;42.668;23.298;2023-07-29T11:13:56;94432.66;;;34.74;20.60
35676;BME280;21790;42.668;23.298;2023-07-29T11:16:24;94436.53;;;34.67;20.51
35676;BME280;21790;42.668;23.298;2023-07-29T11:18:53;94426.88;;;34.37;20.93
35676;BME280;21790;42.668;23.298;2023-07-29T11:21:22;94432.72;;;34.51;21.27
35676;BME280;21790;42.668;23.298;2023-07-29T11:23:53;94437.53;;;34.60;20.80
35676;BME280;21790;42.668;23.298;2023-07-29T11:26:18;94434.09;;;34.50;20.56
35676;BME280;21790;42.668;23.298;2023-07-29T11:28:50;94430.22;;;34.57;20.47
35676;BME280;21790;42.668;23.298;2023-07-29T11:31:18;94437.53;;;34.60;20.53
35676;BME280;21790;42.668;23.298;2023-07-29T11:33:56;94429.81;;;34.62;20.51
35676;BME280;21790;42.668;23.298;2023-07-29T11:36:48;94426.06;;;34.71;20.51
35676;BME280;21790;42.668;23.298;2023-07-29T11:39:25;94428.16;;;34.71;20.19
35676;BME280;21790;42.668;23.298;2023-07-29T11:42:12;94415.56;;;34.64;20.17
35676;BME280;21790;42.668;23.298;2023-07-29T11:44:46;94419.47;;;34.69;20.66
35676;BME280;21790;42.668;23.298;2023-07-29T11:47:17;94414.56;;;34.71;20.77
35676;BME280;21790;42.668;23.298;2023-07-29T11:49:46;94412.94;;;34.68;20.21
35676;BME280;21790;42.668;23.298;2023-07-29T11:52:21;94401.47;;;34.68;20.14
35676;BME280;21790;42.668;23.298;2023-07-29T11:54:48;94411.44;;;34.67;19.56
35676;BME280;21790;42.668;23.298;2023-07-29T11:57:17;94408.22;;;34.73;20.28
35676;BME280;21790;42.668;23.298;2023-07-29T11:59:44;94411.94;;;34.75;20.30
35676;BME280;21790;42.668;23.298;2023-07-29T12:02:20;94397.91;;;34.81;19.87
35676;BME280;21790;42.668;23.298;2023-07-29T12:04:51;94393.16;;;34.86;20.71
35676;BME280;21790;42.668;23.298;2023-07-29T12:07:17;94391.56;;;34.83;20.29
35676;BME280;21790;42.668;23.298;2023-07-29T12:09:52;94393.63;;;34.69;20.88
35676;BME280;21790;42.668;23.298;2023-07-29T12:12:18;94389.47;;;34.72;20.67
35676;BME280;21790;42.668;23.298;2023-07-29T12:14:49;94396.19;;;34.76;20.50
35676;BME280;21790;42.668;23.298;2023-07-29T12:17:19;94383.69;;;34.83;20.61
35676;BME280;21790;42.668;23.298;2023-07-29T12:19:54;94380.41;;;34.89;20.19
35676;BME280;21790;42.668;23.298;2023-07-29T12:22:20;94378.16;;;34.88;20.55
35676;BME280;21790;42.668;23.298;2023-07-29T12:24:56;94379.03;;;34.90;20.31
35676;BME280;21790;42.668;23.298;2023-07-29T12:27:34;94385.00;;;34.94;20.51
35676;BME280;21790;42.668;23.298;2023-07-29T12:30:15;94383.63;;;34.95;20.71
35676;BME280;21790;42.668;23.298;2023-07-29T12:32:48;94377.13;;;34.95;20.59
35676;BME280;21790;42.668;23.298;2023-07-29T12:35:37;94379.72;;;35.02;19.97
35676;BME280;21790;42.668;23.298;2023-07-29T12:38:21;94375.25;;;34.99;20.11
35676;BME280;21790;42.668;23.298;2023-07-29T12:40:55;94371.00;;;35.00;19.80
35676;BME280;21790;42.668;23.298;2023-07-29T12:43:24;94370.31;;;34.88;19.49
35676;BME280;21790;42.668;23.298;2023-07-29T12:45:54;94375.28;;;34.88;19.54
35676;BME280;21790;42.668;23.298;2023-07-29T12:48:25;94366.69;;;34.88;20.15
35676;BME280;21790;42.668;23.298;2023-07-29T12:51:00;94372.91;;;34.96;20.21
35676;BME280;21790;42.668;23.298;2023-07-29T12:53:30;94371.47;;;34.83;19.96
35676;BME280;21790;42.668;23.298;2023-07-29T12:55:56;94373.31;;;34.90;19.73
35676;BME280;21790;42.668;23.298;2023-07-29T12:58:21;94365.72;;;34.83;20.08
35676;BME280;21790;42.668;23.298;2023-07-29T13:00:55;94369.63;;;35.01;20.14
35676;BME280;21790;42.668;23.298;2023-07-29T13:03:29;94361.84;;;35.04;19.68
35676;BME280;21790;42.668;23.298;2023-07-29T13:05:55;94368.25;;;35.02;19.74
35676;BME280;21790;42.668;23.298;2023-07-29T13:08:29;94367.56;;;34.90;20.29
35676;BME280;21790;42.668;23.298;2023-07-29T13:11:20;94363.34;;;35.05;20.39
35676;BME280;21790;42.668;23.298;2023-07-29T13:14:02;94357.78;;;34.95;19.83
35676;BME280;21790;42.668;23.298;2023-07-29T13:16:28;94366.06;;;34.89;20.18
35676;BME280;21790;42.668;23.298;2023-07-29T13:18:57;94360.75;;;34.97;20.07
35676;BME280;21790;42.668;23.298;2023-07-29T13:21:23;94363.63;;;34.97;19.85
35676;BME280;21790;42.668;23.298;2023-07-29T13:23:49;94355.25;;;35.01;19.38
35676;BME280;21790;42.668;23.298;2023-07-29T13:26:18;94356.06;;;34.90;19.37
35676;BME280;21790;42.668;23.298;2023-07-29T13:28:43;94356.63;;;35.00;19.54
35676;BME280;21790;42.668;23.298;2023-07-29T13:31:11;94362.06;;;35.08;19.64
35676;BME280;21790;42.668;23.298;2023-07-29T13:33:42;94357.53;;;35.16;19.16
35676;BME280;21790;42.668;23.298;2023-07-29T13:36:08;94365.28;;;35.14;19.34
35676;BME280;21790;42.668;23.298;2023-07-29T13:38:39;94349.06;;;35.18;19.05
35676;BME280;21790;42.668;23.298;2023-07-29T13:41:07;94349.53;;;35.15;19.20
35676;BME280;21790;42.668;23.298;2023-07-29T13:43:33;94342.28;;;35.00;19.21
35676;BME280;21790;42.668;23.298;2023-07-29T13:45:59;94344.31;;;35.11;19.41
35676;BME280;21790;42.668;23.298;2023-07-29T13:51:15;94346.31;;;35.09;18.62
35676;BME280;21790;42.668;23.298;2023-07-29T13:56:33;94332.91;;;35.00;19.45
35676;BME280;21790;42.668;23.298;2023-07-29T13:59:02;94332.69;;;34.96;19.56
35676;BME280;21790;42.668;23.298;2023-07-29T14:01:51;94326.81;;;34.94;19.36
35676;BME280;21790;42.668;23.298;2023-07-29T14:04:20;94324.91;;;34.98;19.40
35676;BME280;21790;42.668;23.298;2023-07-29T14:07:11;94330.91;;;35.02;19.55
35676;BME280;21790;42.668;23.298;2023-07-29T14:09:46;94324.28;;;35.00;19.65
35676;BME280;21790;42.668;23.298;2023-07-29T14:12:27;94307.94;;;35.02;19.57
35676;BME280;21790;42.668;23.298;2023-07-29T14:15:00;94313.44;;;34.98;19.46
35676;BME280;21790;42.668;23.298;2023-07-29T14:17:26;94310.41;;;34.69;19.41
35676;BME280;21790;42.668;23.298;2023-07-29T14:19:59;94310.53;;;34.84;19.41
35676;BME280;21790;42.668;23.298;2023-07-29T14:22:27;94312.75;;;34.86;19.59
35676;BME280;21790;42.668;23.298;2023-07-29T14:25:11;94311.94;;;34.97;20.10
35676;BME280;21790;42.668;23.298;2023-07-29T14:27:53;94308.22;;;34.95;20.20
35676;BME280;21790;42.668;23.298;2023-07-29T14:30:22;94296.59;;;34.79;20.26
35676;BME280;21790;42.668;23.298;2023-07-29T14:33:00;94300.78;;;34.90;20.29
35676;BME280;21790;42.668;23.298;2023-07-29T14:35:29;94303.59;;;34.76;21.23
35676;BME280;21790;42.668;23.298;2023-07-29T14:37:57;94306.72;;;34.80;21.16
35676;BME280;21790;42.668;23.298;2023-07-29T14:40:47;94310.63;;;34.73;21.77
35676;BME280;21790;42.668;23.298;2023-07-29T14:43:18;94314.00;;;34.69;22.51
35676;BME280;21790;42.668;23.298;2023-07-29T14:45:51;94305.25;;;34.67;22.74
35676;BME280;21790;42.668;23.298;2023-07-29T14:48:17;94310.03;;;34.63;22.84
35676;BME280;21790;42.668;23.298;2023-07-29T14:50:47;94301.63;;;34.67;23.01
35676;BME280;21790;42.668;23.298;2023-07-29T14:56:38;94309.56;;;34.29;23.20
35676;BME280;21790;42.668;23.298;2023-07-29T14:59:10;94312.06;;;34.23;23.38
35676;BME280;21790;42.668;23.298;2023-07-29T15:01:37;94314.72;;;34.19;23.47
35676;BME280;21790;42.668;23.298;2023-07-29T15:04:18;94314.41;;;34.27;23.55
35676;BME280;21790;42.668;23.298;2023-07-29T15:07:01;94310.84;;;34.15;23.95
35676;BME280;21790;42.668;23.298;2023-07-29T15:09:31;94315.97;;;34.04;23.80
35676;BME280;21790;42.668;23.298;2023-07-29T15:14:57;94309.66;;;33.94;24.50
35676;BME280;21790;42.668;23.298;2023-07-29T15:18:00;94327.34;;;34.02;24.18